createdAt,value
2018-07-12T00:02:16.568Z,8.47
2018-07-12T00:04:49.799Z,8.30
2018-07-12T00:07:22.921Z,8.50
2018-07-12T00:09:57.679Z,8.70
2018-07-12T00:12:31.172Z,8.77
2018-07-12T00:15:04.368Z,9.20
2018-07-12T00:17:37.759Z,8.77
2018-07-12T00:20:14.071Z,9.50
2018-07-12T00:22:47.859Z,7.90
2018-07-12T00:25:21.603Z,8.87
2018-07-12T00:27:54.295Z,9.00
2018-07-12T00:30:28.076Z,8.30
2018-07-12T00:33:01.722Z,9.40
2018-07-12T00:35:36.386Z,8.80
2018-07-12T00:38:08.968Z,9.90
2018-07-12T00:40:42.495Z,8.83
2018-07-12T00:43:15.860Z,9.23
2018-07-12T00:45:48.620Z,10.20
2018-07-12T00:48:21.513Z,10.57
2018-07-12T00:50:55.349Z,9.07
2018-07-12T00:53:31.034Z,9.73
2018-07-12T00:56:11.085Z,9.63
2018-07-12T00:58:44.097Z,9.90
2018-07-12T01:01:17.096Z,10.90
2018-07-12T01:03:50.912Z,9.80
2018-07-12T01:06:24.048Z,9.83
2018-07-12T01:09:07.676Z,10.40
2018-07-12T01:11:40.252Z,11.67
2018-07-12T01:14:12.756Z,10.67
2018-07-12T01:16:50.399Z,8.80
2018-07-12T01:19:24.173Z,9.70
2018-07-12T01:21:58.580Z,10.27
2018-07-12T01:24:33.605Z,9.33
2018-07-12T01:27:06.323Z,9.63
2018-07-12T01:29:39.428Z,10.50
2018-07-12T01:32:13.528Z,9.63
2018-07-12T01:34:48.103Z,11.13
2018-07-12T01:37:21.396Z,13.63
2018-07-12T01:40:12.367Z,12.13
2018-07-12T01:42:41.253Z,11.30
2018-07-12T01:45:09.724Z,11.97
2018-07-12T01:47:38.325Z,12.87
2018-07-12T01:50:06.805Z,11.53
2018-07-12T01:52:35.287Z,14.43
2018-07-12T01:55:03.817Z,14.90
2018-07-12T01:57:46.360Z,13.53
2018-07-12T02:00:14.826Z,15.60
2018-07-12T02:02:43.326Z,14.60
2018-07-12T02:05:12.060Z,14.23
2018-07-12T02:07:40.546Z,14.00
2018-07-12T02:10:09.076Z,13.57
2018-07-12T02:12:37.612Z,12.83
2018-07-12T02:15:24.796Z,12.50
2018-07-12T02:17:53.296Z,12.70
2018-07-12T02:20:21.801Z,14.00
2018-07-12T02:22:50.546Z,14.30
2018-07-12T02:25:18.967Z,14.37
2018-07-12T02:27:47.522Z,13.87
2018-07-12T02:30:16.416Z,11.20
2018-07-12T02:32:44.966Z,13.80
2018-07-12T02:35:13.563Z,13.30
2018-07-12T02:37:42.117Z,13.90
2018-07-12T02:40:11.069Z,13.73
2018-07-12T02:42:39.578Z,13.23
2018-07-12T02:45:08.141Z,14.60
2018-07-12T02:47:36.653Z,14.30
2018-07-12T02:50:05.679Z,12.90
2018-07-12T02:52:34.170Z,14.27
2018-07-12T02:55:02.722Z,15.60
2018-07-12T03:00:25.223Z,13.60
2018-07-12T03:02:53.677Z,14.73
2018-07-12T03:05:30.053Z,14.00
2018-07-12T03:07:58.648Z,15.10
2018-07-12T03:10:27.135Z,12.20
2018-07-12T03:12:55.672Z,13.63
2018-07-12T03:15:28.254Z,15.77
2018-07-12T03:18:07.605Z,16.30
2018-07-12T03:20:46.258Z,16.20
2018-07-12T03:23:26.950Z,17.37
2018-07-12T03:26:04.542Z,18.20
2018-07-12T03:28:41.731Z,16.83
2018-07-12T03:31:16.777Z,16.07
2018-07-12T03:33:53.796Z,17.77
2018-07-12T03:36:33.338Z,18.73
2018-07-12T03:39:03.036Z,17.20
2018-07-12T03:41:31.612Z,17.10
2018-07-12T03:44:34.706Z,16.80
2018-07-12T03:47:13.008Z,16.17
2018-07-12T03:49:51.770Z,18.50
2018-07-12T03:52:30.009Z,18.90
2018-07-12T03:55:10.297Z,22.57
2018-07-12T04:00:34.860Z,18.17
2018-07-12T04:03:12.289Z,17.67
2018-07-12T04:05:50.581Z,18.93
2018-07-12T04:08:28.202Z,18.20
2018-07-12T04:11:07.759Z,19.27
2018-07-12T04:13:47.430Z,19.53
2018-07-12T04:16:26.234Z,17.90
2018-07-12T04:19:06.981Z,20.53
2018-07-12T04:21:43.205Z,20.60
2018-07-12T04:24:21.405Z,18.80
2018-07-12T04:26:59.548Z,17.67
2018-07-12T04:29:36.511Z,17.20
2018-07-12T04:32:16.532Z,18.47
2018-07-12T04:34:54.786Z,18.87
2018-07-12T04:37:34.413Z,17.53
2018-07-12T04:40:14.655Z,18.10
2018-07-12T04:42:54.059Z,18.07
2018-07-12T04:45:31.430Z,18.57
2018-07-12T04:48:10.741Z,17.40
2018-07-12T04:50:50.095Z,18.10
2018-07-12T04:53:28.290Z,17.90
2018-07-12T04:56:07.133Z,17.50
2018-07-12T04:58:44.897Z,17.40
2018-07-12T05:01:22.324Z,18.60
2018-07-12T05:03:59.592Z,17.77
2018-07-12T05:06:37.694Z,15.57
2018-07-12T05:09:17.164Z,17.20
2018-07-12T05:11:56.408Z,14.93
2018-07-12T05:14:34.357Z,16.47
2018-07-12T05:17:12.633Z,17.47
2018-07-12T05:19:50.440Z,16.60
2018-07-12T05:22:30.836Z,17.60
2018-07-12T05:25:09.898Z,16.40
2018-07-12T05:27:47.821Z,17.23
2018-07-12T05:30:25.967Z,17.77
2018-07-12T05:33:00.836Z,17.33
2018-07-12T05:35:48.661Z,17.57
2018-07-12T05:38:26.893Z,17.87
2018-07-12T05:41:05.919Z,16.60
2018-07-12T05:43:56.431Z,17.50
2018-07-12T05:46:43.169Z,18.00
2018-07-12T05:49:27.635Z,16.00
2018-07-12T05:52:12.904Z,16.73
2018-07-12T05:55:00.340Z,14.03
2018-07-12T05:57:47.160Z,16.30
2018-07-12T06:00:34.424Z,18.63
2018-07-12T06:03:18.912Z,17.20
2018-07-12T06:06:04.901Z,16.30
2018-07-12T06:08:51.620Z,17.07
2018-07-12T06:11:34.583Z,16.40
2018-07-12T06:14:22.063Z,16.20
2018-07-12T06:17:05.207Z,16.30
2018-07-12T06:19:52.845Z,16.83
2018-07-12T06:22:36.522Z,15.50
2018-07-12T06:25:25.347Z,15.87
2018-07-12T06:28:04.602Z,16.60
2018-07-12T06:30:47.381Z,15.97
2018-07-12T06:33:33.737Z,14.93
2018-07-12T06:36:17.760Z,14.90
2018-07-12T06:39:02.933Z,16.20
2018-07-12T06:41:45.710Z,14.33
2018-07-12T06:44:29.073Z,14.07
2018-07-12T06:47:11.222Z,12.37
2018-07-12T06:49:52.940Z,12.47
2018-07-12T06:52:37.655Z,12.50
2018-07-12T06:55:20.202Z,13.40
2018-07-12T06:58:05.334Z,12.73
2018-07-12T07:00:51.148Z,13.60
2018-07-12T07:03:37.079Z,11.70
2018-07-12T07:06:25.953Z,12.80
2018-07-12T07:09:13.991Z,11.70
2018-07-12T07:12:01.801Z,12.70
2018-07-12T07:14:47.139Z,12.00
2018-07-12T07:17:31.924Z,10.77
2018-07-12T07:20:15.709Z,10.57
2018-07-12T07:23:00.234Z,10.63
2018-07-12T07:25:48.634Z,9.43
2018-07-12T07:28:35.539Z,10.27
2018-07-12T07:31:23.430Z,8.90
2018-07-12T07:34:09.172Z,10.87
2018-07-12T07:36:56.513Z,9.40
2018-07-12T07:39:46.443Z,10.70
2018-07-12T07:42:39.659Z,8.90
2018-07-12T07:45:11.692Z,9.00
2018-07-12T07:47:42.373Z,8.90
2018-07-12T07:50:13.304Z,8.10
2018-07-12T07:52:43.845Z,10.20
2018-07-12T07:55:14.455Z,9.13
2018-07-12T07:57:45.051Z,7.70
2018-07-12T08:00:15.657Z,7.93
2018-07-12T08:02:46.278Z,7.60
2018-07-12T08:05:17.215Z,9.30
2018-07-12T08:07:47.498Z,7.53
2018-07-12T08:10:17.990Z,7.27
2018-07-12T08:12:49.330Z,8.20
2018-07-12T08:15:20.430Z,7.40
2018-07-12T08:17:51.081Z,8.00
2018-07-12T08:20:31.120Z,7.90
2018-07-12T08:23:01.715Z,8.40
2018-07-12T08:25:32.324Z,8.40
2018-07-12T08:28:28.596Z,8.73
2018-07-12T08:30:59.149Z,8.43
2018-07-12T08:33:29.791Z,8.10
2018-07-12T08:36:00.276Z,8.90
2018-07-12T08:38:30.869Z,8.20
2018-07-12T08:41:01.599Z,8.63
2018-07-12T08:43:34.703Z,7.57
2018-07-12T08:46:05.215Z,7.60
2018-07-12T08:48:35.189Z,8.80
2018-07-12T08:51:09.205Z,8.73
2018-07-12T08:53:39.806Z,8.27
2018-07-12T08:56:10.404Z,6.83
2018-07-12T08:58:40.908Z,6.67
2018-07-12T09:01:11.501Z,8.30
2018-07-12T09:03:42.076Z,7.20
2018-07-12T09:06:12.684Z,8.40
2018-07-12T09:08:43.352Z,6.97
2018-07-12T09:11:13.914Z,8.30
2018-07-12T09:13:46.136Z,7.97
2018-07-12T09:16:16.911Z,7.10
2018-07-12T09:18:47.456Z,7.00
2018-07-12T09:21:30.344Z,7.50
2018-07-12T09:24:00.936Z,5.77
2018-07-12T09:26:31.763Z,7.63
2018-07-12T09:29:02.251Z,6.53
2018-07-12T09:31:32.809Z,6.70
2018-07-12T09:34:03.310Z,5.80
2018-07-12T09:36:33.876Z,5.80
2018-07-12T09:39:05.328Z,6.03
2018-07-12T09:41:35.964Z,5.73
2018-07-12T09:44:07.345Z,6.33
2018-07-12T09:46:38.093Z,6.40
2018-07-12T09:49:08.820Z,6.80
2018-07-12T09:51:39.360Z,6.90
2018-07-12T09:54:10.045Z,6.73
2018-07-12T09:56:53.445Z,7.13
2018-07-12T09:59:23.929Z,5.80
2018-07-12T10:02:00.881Z,6.57
2018-07-12T10:04:31.516Z,6.10
2018-07-12T10:07:09.337Z,5.97
2018-07-12T10:09:45.932Z,7.20
2018-07-12T10:12:21.476Z,6.67
2018-07-12T10:17:39.781Z,6.17
2018-07-12T10:20:10.361Z,6.47
2018-07-12T10:22:41.428Z,6.00
2018-07-12T10:25:12.060Z,5.97
2018-07-12T10:27:42.657Z,6.10
2018-07-12T10:30:13.529Z,6.10
2018-07-12T10:32:44.113Z,7.10
2018-07-12T10:35:14.649Z,5.47
2018-07-12T10:37:45.776Z,7.33
2018-07-12T10:40:16.329Z,6.00
2018-07-12T10:42:46.885Z,6.30
2018-07-12T10:45:17.495Z,6.37
2018-07-12T10:47:51.972Z,6.87
2018-07-12T10:50:22.528Z,7.00
2018-07-12T10:52:53.206Z,6.13
2018-07-12T10:55:24.210Z,6.87
2018-07-12T10:57:55.048Z,6.30
2018-07-12T11:00:25.611Z,6.80
2018-07-12T11:02:56.407Z,5.70
2018-07-12T11:05:26.993Z,6.30
2018-07-12T11:07:56.942Z,6.27
2018-07-12T11:10:31.208Z,6.37
2018-07-12T11:13:13.807Z,6.90
2018-07-12T11:15:45.617Z,6.53
2018-07-12T11:18:29.380Z,6.03
2018-07-12T11:21:01.350Z,6.43
2018-07-12T11:23:31.924Z,6.20
2018-07-12T11:26:02.493Z,6.30
2018-07-12T11:28:34.424Z,6.07
2018-07-12T11:31:12.165Z,6.37
2018-07-12T11:36:21.393Z,5.90
2018-07-12T11:38:53.840Z,5.90
2018-07-12T11:41:25.043Z,5.50
2018-07-12T11:43:56.529Z,5.83
2018-07-12T11:46:27.621Z,5.87
2018-07-12T11:49:02.355Z,5.20
2018-07-12T11:51:33.501Z,5.67
2018-07-12T11:54:04.376Z,6.00
2018-07-12T11:56:35.569Z,6.33
2018-07-12T11:59:06.522Z,6.60
2018-07-12T12:01:37.408Z,5.37
2018-07-12T12:04:08.662Z,5.37
2018-07-12T12:06:40.000Z,6.87
2018-07-12T12:09:11.323Z,6.43
2018-07-12T12:11:42.295Z,6.10
2018-07-12T12:14:13.217Z,6.23
2018-07-12T12:16:44.098Z,7.00
2018-07-12T12:19:14.890Z,7.00
2018-07-12T12:21:45.894Z,7.43
2018-07-12T12:24:16.191Z,8.63
2018-07-12T12:26:48.238Z,7.70
2018-07-12T12:29:19.106Z,8.67
2018-07-12T12:31:50.056Z,7.73
2018-07-12T12:34:21.174Z,8.77
2018-07-12T12:36:52.065Z,9.13
2018-07-12T12:39:23.177Z,8.80
2018-07-12T12:41:53.847Z,9.80
2018-07-12T12:44:24.741Z,10.47
2018-07-12T12:46:56.838Z,11.07
2018-07-12T12:49:27.043Z,9.50
2018-07-12T12:51:57.793Z,9.30
2018-07-12T12:54:30.154Z,10.73
2018-07-12T12:57:01.958Z,10.77
2018-07-12T12:59:33.041Z,8.60
2018-07-12T13:02:04.025Z,8.63
2018-07-12T13:04:35.926Z,8.10
2018-07-12T13:07:06.904Z,7.70
2018-07-12T13:09:38.312Z,7.00
2018-07-12T13:12:09.462Z,6.90
2018-07-12T13:14:40.248Z,7.10
2018-07-12T13:17:11.015Z,6.10
2018-07-12T13:19:42.229Z,6.47
2018-07-12T13:22:13.347Z,6.37
2018-07-12T13:24:44.280Z,7.50
2018-07-12T13:27:15.034Z,7.77
2018-07-12T13:29:46.601Z,8.07
2018-07-12T13:32:17.445Z,6.93
2018-07-12T13:34:49.165Z,5.57
2018-07-12T13:37:20.453Z,4.87
2018-07-12T13:39:51.977Z,3.40
2018-07-12T13:42:23.517Z,3.30
2018-07-12T13:44:54.512Z,3.20
2018-07-12T13:47:26.076Z,3.77
2018-07-12T13:49:56.944Z,3.90
2018-07-12T13:52:27.701Z,3.67
2018-07-12T13:54:58.518Z,3.10
2018-07-12T13:57:30.196Z,3.50
2018-07-12T14:00:01.956Z,3.67
2018-07-12T14:02:33.813Z,3.90
2018-07-12T14:05:04.864Z,4.40
2018-07-12T14:07:35.790Z,4.40
2018-07-12T14:10:06.725Z,4.50
2018-07-12T14:12:38.041Z,4.40
2018-07-12T14:15:08.765Z,4.77
2018-07-12T14:17:39.671Z,5.07
2018-07-12T14:20:11.011Z,4.80
2018-07-12T14:22:42.189Z,4.70
2018-07-12T14:25:13.410Z,4.70
2018-07-12T14:27:44.737Z,3.93
2018-07-12T14:30:15.679Z,4.33
2018-07-12T14:32:47.018Z,4.77
2018-07-12T14:35:18.195Z,4.67
2018-07-12T14:37:49.110Z,4.33
2018-07-12T14:40:21.141Z,6.00
2018-07-12T14:42:52.619Z,5.20
2018-07-12T14:45:23.505Z,5.00
2018-07-12T14:47:54.510Z,4.90
2018-07-12T14:50:25.387Z,4.60
2018-07-12T14:52:57.178Z,4.80
2018-07-12T14:55:28.101Z,4.80
2018-07-12T14:57:59.974Z,5.80
2018-07-12T15:00:31.729Z,5.77
2018-07-12T15:03:05.671Z,5.47
2018-07-12T15:05:36.620Z,6.17
2018-07-12T15:08:07.543Z,4.97
2018-07-12T15:10:39.120Z,6.03
2018-07-12T15:13:10.190Z,6.10
2018-07-12T15:15:41.609Z,4.80
2018-07-12T15:18:12.568Z,5.07
2018-07-12T15:20:43.566Z,5.70
2018-07-12T15:23:14.585Z,6.03
2018-07-12T15:25:45.629Z,5.40
2018-07-12T15:28:17.177Z,7.13
2018-07-12T15:30:48.249Z,5.87
2018-07-12T15:33:19.550Z,5.30
2018-07-12T15:35:50.327Z,5.60
2018-07-12T15:38:21.605Z,6.37
2018-07-12T15:40:52.353Z,7.13
2018-07-12T15:43:23.206Z,6.03
2018-07-12T15:45:54.144Z,7.93
2018-07-12T15:48:25.112Z,8.93
2018-07-12T15:50:56.385Z,6.90
2018-07-12T15:53:28.218Z,5.90
2018-07-12T15:55:59.288Z,6.27
2018-07-12T15:58:29.703Z,6.83
2018-07-12T16:01:00.965Z,7.50
2018-07-12T16:03:32.095Z,9.77
2018-07-12T16:06:03.062Z,9.60
2018-07-12T16:08:34.049Z,8.40
2018-07-12T16:11:05.561Z,8.40
2018-07-12T16:13:36.544Z,8.27
2018-07-12T16:16:07.853Z,7.60
2018-07-12T16:18:39.145Z,8.77
2018-07-12T16:21:10.507Z,9.87
2018-07-12T16:23:41.649Z,9.70
2018-07-12T16:26:12.662Z,8.40
2018-07-12T16:28:43.523Z,7.33
2018-07-12T16:31:14.532Z,8.47
2018-07-12T16:33:45.833Z,9.57
2018-07-12T16:36:16.647Z,8.20
2018-07-12T16:38:47.673Z,8.30
2018-07-12T16:41:18.785Z,9.83
2018-07-12T16:43:50.137Z,9.63
2018-07-12T16:46:21.389Z,10.37
2018-07-12T16:48:52.274Z,8.60
2018-07-12T16:51:23.497Z,9.40
2018-07-12T16:53:54.311Z,9.23
2018-07-12T16:56:25.358Z,9.00
2018-07-12T16:58:57.151Z,9.77
2018-07-12T17:01:28.773Z,8.87
2018-07-12T17:03:59.902Z,7.10
2018-07-12T17:06:31.052Z,7.70
2018-07-12T17:09:03.517Z,8.40
2018-07-12T17:11:35.641Z,8.80
2018-07-12T17:14:07.219Z,8.20
2018-07-12T17:16:38.781Z,8.50
2018-07-12T17:19:10.482Z,9.70
2018-07-12T17:21:42.328Z,9.30
2018-07-12T17:24:13.538Z,7.60
2018-07-12T17:26:46.868Z,6.90
2018-07-12T17:29:19.154Z,7.00
2018-07-12T17:31:50.108Z,6.43
2018-07-12T17:34:21.023Z,6.43
2018-07-12T17:36:52.060Z,6.83
2018-07-12T17:39:22.741Z,6.67
2018-07-12T17:41:53.973Z,6.33
2018-07-12T17:44:26.421Z,6.20
2018-07-12T17:46:57.401Z,6.20
2018-07-12T17:49:30.103Z,8.87
2018-07-12T17:52:00.918Z,7.87
2018-07-12T17:54:32.261Z,7.20
2018-07-12T17:57:03.261Z,7.10
2018-07-12T17:59:34.682Z,8.80
2018-07-12T18:02:05.469Z,7.60
2018-07-12T18:04:36.489Z,8.00
2018-07-12T18:07:07.423Z,7.83
2018-07-12T18:09:38.729Z,7.63
2018-07-12T18:12:10.071Z,7.23
2018-07-12T18:14:40.989Z,7.93
2018-07-12T18:17:11.961Z,7.23
2018-07-12T18:19:43.729Z,7.70
2018-07-12T18:22:14.955Z,7.53
2018-07-12T18:25:03.464Z,7.10
2018-07-12T18:27:47.739Z,7.10
2018-07-12T18:30:32.094Z,7.80
2018-07-12T18:33:16.610Z,6.60
2018-07-12T18:36:01.683Z,7.57
2018-07-12T18:38:47.051Z,7.40
2018-07-12T18:41:37.576Z,7.80
2018-07-12T18:44:27.374Z,8.37
2018-07-12T18:47:09.182Z,9.10
2018-07-12T18:49:55.665Z,8.20
2018-07-12T18:52:35.596Z,8.10
2018-07-12T18:55:17.419Z,8.50
2018-07-12T18:58:01.287Z,8.30
2018-07-12T19:00:47.789Z,6.90
2018-07-12T19:03:31.995Z,7.93
2018-07-12T19:06:14.233Z,7.60
2018-07-12T19:08:57.319Z,6.20
2018-07-12T19:11:39.808Z,6.27
2018-07-12T19:14:26.232Z,7.77
2018-07-12T19:17:09.580Z,7.00
2018-07-12T19:19:53.570Z,6.83
2018-07-12T19:22:38.390Z,6.50
2018-07-12T19:25:18.600Z,6.10
2018-07-12T19:28:01.934Z,6.53
2018-07-12T19:30:43.869Z,6.03
2018-07-12T19:33:28.039Z,6.03
2018-07-12T19:36:07.916Z,6.93
2018-07-12T19:38:51.374Z,6.63
2018-07-12T19:41:34.998Z,6.07
2018-07-12T19:44:19.706Z,5.90
2018-07-12T19:47:03.546Z,5.57
2018-07-12T19:52:43.463Z,6.90
2018-07-12T19:55:26.664Z,6.80
2018-07-12T19:58:09.214Z,5.80
2018-07-12T20:00:51.282Z,6.43
2018-07-12T20:03:33.843Z,6.00
2018-07-12T20:06:17.562Z,7.40
2018-07-12T20:09:00.248Z,6.10
2018-07-12T20:11:45.089Z,6.87
2018-07-12T20:14:29.982Z,7.37
2018-07-12T20:17:16.799Z,6.50
2018-07-12T20:20:01.561Z,6.97
2018-07-12T20:22:47.154Z,5.80
2018-07-12T20:25:31.261Z,6.00
2018-07-12T20:28:13.824Z,5.43
2018-07-12T20:30:58.486Z,5.90
2018-07-12T20:33:41.573Z,6.10
2018-07-12T20:36:26.626Z,5.10
2018-07-12T20:39:13.911Z,6.60
2018-07-12T20:42:01.756Z,6.57
2018-07-12T20:44:44.354Z,5.67
2018-07-12T20:47:27.412Z,6.53
2018-07-12T20:50:12.194Z,5.80
2018-07-12T20:52:58.815Z,6.37
2018-07-12T20:55:45.263Z,5.70
2018-07-12T20:58:30.700Z,5.37
2018-07-12T21:01:13.125Z,5.70
2018-07-12T21:03:59.078Z,5.07
2018-07-12T21:06:41.616Z,5.63
2018-07-12T21:09:25.376Z,5.47
2018-07-12T21:12:07.493Z,5.73
2018-07-12T21:14:51.056Z,5.83
2018-07-12T21:17:36.704Z,5.23
2018-07-12T21:20:20.013Z,5.37
2018-07-12T21:23:08.766Z,5.40
2018-07-12T21:25:52.275Z,5.70
2018-07-12T21:28:36.376Z,5.17
2018-07-12T21:31:20.508Z,5.30
2018-07-12T21:34:02.140Z,5.83
2018-07-12T21:36:46.932Z,6.60
2018-07-12T21:39:27.599Z,5.90
2018-07-12T21:42:09.792Z,5.13
2018-07-12T21:44:55.412Z,5.50
2018-07-12T21:47:40.776Z,5.40
2018-07-12T21:50:21.717Z,5.77
2018-07-12T21:53:04.911Z,6.20
2018-07-12T21:55:48.515Z,6.00
2018-07-12T21:58:31.352Z,6.40
2018-07-12T22:01:11.973Z,5.97
2018-07-12T22:03:52.840Z,5.60
2018-07-12T22:06:46.289Z,5.67
2018-07-12T22:09:32.005Z,6.20
2018-07-12T22:12:13.306Z,6.33
2018-07-12T22:14:54.603Z,5.40
2018-07-12T22:17:45.585Z,6.00
2018-07-12T22:20:28.385Z,5.60
2018-07-12T22:23:12.864Z,6.00
2018-07-12T22:25:56.131Z,5.87
2018-07-12T22:28:40.286Z,5.37
2018-07-12T22:31:21.838Z,5.93
2018-07-12T22:34:07.786Z,5.63
2018-07-12T22:36:54.745Z,6.17
2018-07-12T22:39:37.000Z,5.87
2018-07-12T22:42:17.032Z,5.80
2018-07-12T22:44:56.118Z,7.07
2018-07-12T22:47:35.896Z,6.30
2018-07-12T22:50:17.316Z,6.10
2018-07-12T22:52:59.482Z,5.80
2018-07-12T22:55:42.121Z,7.27
2018-07-12T22:58:20.720Z,6.93
2018-07-12T23:01:08.942Z,6.90
2018-07-12T23:03:52.945Z,6.90
2018-07-12T23:06:36.725Z,6.30
2018-07-12T23:12:08.182Z,7.23
2018-07-12T23:14:52.450Z,7.00
2018-07-12T23:17:38.925Z,6.80
2018-07-12T23:20:21.814Z,7.50
2018-07-12T23:23:04.820Z,7.00
2018-07-12T23:25:47.253Z,8.03
2018-07-12T23:28:19.698Z,7.20
2018-07-12T23:30:52.339Z,7.27
2018-07-12T23:33:23.694Z,7.57
2018-07-12T23:35:54.869Z,9.17
2018-07-12T23:38:26.225Z,8.60
2018-07-12T23:40:57.186Z,7.47
2018-07-12T23:43:28.156Z,8.90
2018-07-12T23:45:59.142Z,7.87
2018-07-12T23:48:30.225Z,7.80
2018-07-12T23:51:01.319Z,7.57
2018-07-12T23:53:32.189Z,8.63
2018-07-12T23:56:03.097Z,8.40
2018-07-12T23:58:34.498Z,8.10
